• Join FlightAware (Why Join?)
  • Login
  • US Flag 
09:02PM EDT


 

Airport Tracker/Info


-or-


 

Live Flight TrackerFlight Track Log ✈ N3TN ✈ 23-Jul-2013 ✈ KBFD - KBTV

Flight Track Log - Related Links

Times and Time Zones

All times are in EDT time to prevent confusion due to time zone crossing. See the N3TN flight status page for this flight to view local times or setup timezone preferences in your user account.

Time Position Orientation Groundspeed Altitude Reporting Facility
EDT Latitude Longitude Course Direction KTS MPH feet Rate Location/Type
11:19AM 41.8164 -78.6356 70° East 104 120 3,300  Level Cleveland Center
11:20AM 41.8222 -78.6075 74° East 84 97 3,900 600 Climbing Cleveland Center
11:21AM 41.8364 -78.5850 50° Northeast 77 89 4,500 540 Climbing Cleveland Center
11:22AM 41.8464 -78.5622 59° Northeast 71 82 5,000 480 Climbing Cleveland Center
11:23AM 41.8583 -78.5367 58° Northeast 71 82 5,500 480 Climbing Cleveland Center
11:24AM 41.8664 -78.5142 64° Northeast 71 82 6,000 420 Climbing Cleveland Center
11:25AM 41.8764 -78.4889 62° Northeast 76 87 6,400 360 Climbing Cleveland Center
11:26AM 41.8883 -78.4633 58° Northeast 71 82 6,800 300 Climbing Cleveland Center
11:27AM 41.9003 -78.4350 60° Northeast 76 87 7,100 120 Climbing Cleveland Center
11:28AM 41.9164 -78.4094 50° Northeast 81 93 7,100 -60 Level Cleveland Center
11:29AM 41.9325 -78.3725 60° Northeast 92 106 7,000 -60 Descending Cleveland Center
11:30AM 41.9400 -78.3303 77° East 97 112 7,000  Level Cleveland Center
11:31AM 41.9539 -78.2964 61° Northeast 97 112 7,000  Level Cleveland Center
11:32AM 41.9700 -78.2622 58° Northeast 102 117 7,000  Level Cleveland Center
11:33AM 41.9861 -78.2311 55° Northeast 102 117 7,000  Level Cleveland Center
11:34AM 41.9981 -78.2053 58° Northeast 102 117 7,000 -60 Level Cleveland Center
11:35AM 42.0200 -78.1656 53° Northeast 102 117 6,900  Descending Cleveland Center
11:36AM 42.0339 -78.1342 59° Northeast 102 117 7,000  Climbing Cleveland Center
11:37AM 42.0458 -78.1031 63° Northeast 102 117 6,900  Descending Cleveland Center
11:38AM 42.0619 -78.0717 55° Northeast 102 117 7,000  Climbing Cleveland Center
11:39AM 42.0758 -78.0403 59° Northeast 97 112 6,900 -60 Descending Cleveland Center
11:40AM 42.0894 -78.0061 62° Northeast 97 112 6,900  Level Cleveland Center
11:41AM 42.1056 -77.9775 53° Northeast 97 112 7,000  Climbing Cleveland Center
11:42AM 42.1239 -77.9517 46° Northeast 97 112 7,000  Level Cleveland Center
11:43AM 42.1439 -77.9228 47° Northeast 97 112 7,000  Level Cleveland Center
11:44AM 42.1619 -77.8939 50° Northeast 97 112 7,000  Level Cleveland Center
11:45AM 42.1800 -77.8622 52° Northeast 97 112 7,000  Level Cleveland Center
11:46AM 42.2003 -77.8333 47° Northeast 97 112 7,000  Level Cleveland Center
11:47AM 42.2183 -77.8047 50° Northeast 97 112 7,100  Climbing Cleveland Center
11:47AM 42.2325 -77.7844 47° Northeast 101 116 7,000 -120 Descending Cleveland Center
11:48AM 42.2506 -77.7556 50° Northeast 100 115 6,900  Descending Cleveland Center
11:49AM 42.2706 -77.7294 44° Northeast 95 109 7,100 60 Climbing Cleveland Center
11:50AM 42.2908 -77.7058 41° Northeast 96 110 7,100  Level Cleveland Center
11:52AM 42.3153 -77.6797 38° Northeast 98 113 7,100  Level Cleveland Center
11:52AM 42.3333 -77.6564 44° Northeast 98 113 7,100 -60 Level Cleveland Center
11:53AM 42.3517 -77.6331 43° Northeast 101 116 7,000  Descending Cleveland Center
11:54AM 42.3739 -77.6039 44° Northeast 98 113 7,100  Climbing Cleveland Center
11:55AM 42.3919 -77.5806 44° Northeast 98 113 7,000  Descending Cleveland Center
11:56AM 42.4081 -77.5544 50° Northeast 96 110 7,100  Climbing Cleveland Center
11:57AM 42.4281 -77.5253 47° Northeast 101 116 7,100  Level Cleveland Center
11:58AM 42.4461 -77.4992 47° Northeast 99 114 7,100  Level Cleveland Center
11:59AM 42.4683 -77.4728 41° Northeast 99 114 7,100  Level Cleveland Center
12:01PM 42.4883 -77.4436 47° Northeast 99 114 7,100  Level Cleveland Center
12:01PM 42.5106 -77.4200 38° Northeast 99 114 7,100 -60 Level Cleveland Center
12:03PM 42.5308 -77.3964 41° Northeast 101 116 7,000 -60 Descending Cleveland Center
12:03PM 42.5508 -77.3700 44° Northeast 97 112 7,000  Level Cleveland Center
12:05PM 42.5714 -77.3403 47° Northeast  Level FlightAware Approximate
12:05PM 42.5892 -77.3228 47° Northeast 100 115 7,000  Level Cleveland Center
12:06PM 42.6092 -77.2936 47° Northeast 98 113 7,100  Climbing Cleveland Center
12:07PM 42.6314 -77.2669 41° Northeast 100 115 7,000 -60 Descending Cleveland Center
12:09PM 42.6517 -77.2406 44° Northeast 99 114 7,000  Level Cleveland Center
12:10PM 42.6733 -77.2056 50° Northeast 102 117 7,000  Level Cleveland Center
12:11PM 42.6914 -77.1764 50° Northeast 99 114 7,000  Level Cleveland Center
12:12PM 42.7114 -77.1497 44° Northeast 102 117 7,000  Level Cleveland Center
12:13PM 42.7314 -77.1233 44° Northeast 101 116 7,000  Level Cleveland Center
12:14PM 42.7494 -77.0967 47° Northeast 98 113 7,000  Level Cleveland Center
12:15PM 42.7697 -77.0758 37° Northeast 98 113 7,100  Climbing Cleveland Center
12:16PM 42.7908 -77.0442 48° Northeast 101 116 7,000 -60 Descending Boston Center
12:17PM 42.8108 -77.0144 47° Northeast 103 119 7,000  Level Boston Center
12:18PM 42.8306 -76.9850 48° Northeast 100 115 7,100  Climbing Boston Center
12:19PM 42.8467 -76.9519 56° Northeast 104 120 7,100  Level Boston Center
12:20PM 42.8606 -76.9161 62° Northeast 105 121 7,100  Level Boston Center
12:21PM 42.8786 -76.8806 55° Northeast 105 121 7,100 -60 Level Boston Center
12:22PM 42.8944 -76.8506 54° Northeast 104 120 7,000 -60 Descending Boston Center
12:23PM 42.9142 -76.8236 45° Northeast 100 115 7,000  Level Boston Center
12:25PM 42.9400 -76.7461 65° Northeast 107 123 7,000  Level Boston Center
12:26PM 42.9581 -76.7133 53° Northeast 106 122 7,000  Level Boston Center
12:27PM 42.9719 -76.6744 64° Northeast 105 121 7,000  Level Boston Center
12:28PM 42.9839 -76.6356 67° East 106 122 7,000  Level Boston Center
12:29PM 42.9953 -76.6050 63° Northeast 106 122 7,100  Climbing Boston Center
12:30PM 43.0111 -76.5722 57° Northeast 106 122 7,100  Level Boston Center
12:31PM 43.0250 -76.5361 62° Northeast 104 120 7,200 120 Climbing Boston Center
12:32PM 43.0364 -76.5056 63° Northeast 102 117 7,400 300 Climbing Boston Center
12:33PM 43.0481 -76.4722 64° Northeast 96 110 7,800 300 Climbing Boston Center
12:34PM 43.0639 -76.4392 57° Northeast 93 107 8,100 240 Climbing Boston Center
12:35PM 43.0731 -76.4114 66° East 96 110 8,300 300 Climbing Boston Center
12:36PM 43.0908 -76.3811 51° Northeast 99 114 8,700 240 Climbing Boston Center
12:37PM 43.1044 -76.3478 61° Northeast 99 114 8,900 180 Climbing Boston Center
12:38PM 43.1203 -76.3119 59° Northeast 105 121 9,100 60 Climbing Boston Center
12:40PM 43.1561 -76.2431 54° Northeast 114 131 9,100  Level Boston Center
12:41PM 43.1761 -76.2044 55° Northeast 110 127 9,200  Climbing Boston Center
12:42PM 43.1897 -76.1711 61° Northeast 111 128 9,100 -60 Descending Boston Center
12:43PM 43.2094 -76.1381 51° Northeast 111 128 9,100  Level Boston Center
12:44PM 43.2272 -76.1050 54° Northeast 112 129 9,100  Level Boston Center
12:45PM 43.2514 -76.0664 49° Northeast 109 125 9,100 -60 Level Boston Center
12:46PM 43.2692 -76.0306 56° Northeast 108 124 9,000 -60 Descending Boston Center
12:47PM 43.2869 -75.9972 54° Northeast 107 123 9,000  Level Boston Center
12:48PM 43.3025 -75.9667 55° Northeast 103 119 9,000  Level Boston Center
12:50PM 43.3078 -75.9166 82° East  Level FlightAware Approximate
12:50PM 43.3361 -75.8889 82° East 106 122 9,000  Level Boston Center
12:52PM 43.3519 -75.8467 63° Northeast 106 122 9,000  Level Boston Center
12:53PM 43.3697 -75.8106 56° Northeast 109 125 9,000  Level Boston Center
12:54PM 43.3833 -75.7772 61° Northeast 110 127 9,000  Level Boston Center
12:55PM 43.3989 -75.7381 61° Northeast 111 128 9,000  Level Boston Center
12:56PM 43.4106 -75.7014 66° East 106 122 9,000  Level Boston Center
12:57PM 43.4258 -75.6708 55° Northeast 102 117 9,100  Climbing Boston Center
12:58PM 43.4414 -75.6403 55° Northeast 105 121 9,100  Level Boston Center
12:59PM 43.4406 -75.5972 92° East 116 133 9,100  Level Boston Center
01:00PM 43.4250 -75.5536 116° Southeast 116 133 9,100  Level Boston Center
01:01PM 43.4094 -75.5097 116° Southeast 119 137 9,100  Level Boston Center
01:02PM 43.3981 -75.4719 113° Southeast 124 143 9,200 -60 Climbing Boston Center
01:03PM 43.3889 -75.4231 104° East 118 136 9,000 -120 Descending Boston Center
01:04PM 43.3794 -75.3856 109° East 114 131 9,000  Level Boston Center
01:05PM 43.3825 -75.3456 84° East 116 133 9,000  Level Boston Center
01:06PM 43.3836 -75.3028 88° East 111 128 9,100  Climbing Boston Center
01:07PM 43.3867 -75.2600 84° East 115 132 9,000 -60 Descending Boston Center
01:07PM 43.3919 -75.2231 79° East 117 135 9,000  Level Boston Center
01:08PM 43.3953 -75.1719 85° East 128 147 9,000  Level Boston Center
01:09PM 43.3858 -75.1286 107° East 123 142 9,000 -540 Level Boston Center
01:10PM 43.3742 -75.0881 112° Southeast 123 142 8,000 -900 Descending Boston Center
01:11PM 43.3650 -75.0419 105° East 123 142 7,300 -480 Descending Boston Center
01:12PM 43.3575 -74.9958 103° East 123 142 7,100 -120 Descending Boston Center
01:13PM 43.3731 -74.9567 61° Northeast 115 132 7,100  Level Boston Center
01:14PM 43.3944 -74.9289 43° Northeast 108 124 7,100  Level Boston Center
01:15PM 43.4161 -74.8983 46° Northeast 108 124 7,100  Level Boston Center
01:16PM 43.4375 -74.8678 46° Northeast 108 124 7,100  Level Boston Center
01:17PM 43.4569 -74.8369 49° Northeast 108 124 7,100  Level Boston Center
01:19PM 43.4764 -74.8064 49° Northeast 108 124 7,100 -60 Level Boston Center
01:20PM 43.5042 -74.7731 41° Northeast 108 124 7,000 -60 Descending Boston Center
01:21PM 43.5236 -74.7367 54° Northeast 108 124 7,000  Level Boston Center
01:22PM 43.5428 -74.7086 47° Northeast 108 124 7,100  Climbing Boston Center
01:23PM 43.5603 -74.6750 54° Northeast 103 119 7,100  Level Boston Center
01:24PM 43.5753 -74.6525 47° Northeast 103 119 7,200  Climbing Boston Center
01:26PM 43.6142 -74.5794 54° Northeast 108 124 7,100 -60 Descending Boston Center
01:27PM 43.6294 -74.5456 58° Northeast 108 124 7,100 -60 Level Boston Center
01:28PM 43.6486 -74.5117 52° Northeast 108 124 7,000 -60 Descending Boston Center
01:29PM 43.6661 -74.4750 57° Northeast 108 124 7,000  Level Boston Center
01:30PM 43.6875 -74.4442 46° Northeast 108 124 7,000  Level Boston Center
01:31PM 43.7067 -74.4161 47° Northeast 103 119 7,100  Climbing Boston Center
01:32PM 43.7300 -74.3911 38° Northeast 98 113 7,100  Level Boston Center
01:33PM 43.7494 -74.3600 49° Northeast 98 113 7,200  Climbing Boston Center
01:34PM 43.7747 -74.3378 32° Northeast 98 113 7,200 -60 Level Boston Center
01:35PM 43.7939 -74.3067 50° Northeast 98 113 7,100 -60 Descending Boston Center
01:36PM 43.8153 -74.2786 43° Northeast 93 107 7,100  Level Boston Center
01:37PM 43.8344 -74.2475 49° Northeast 93 107 7,200  Climbing Boston Center
01:38PM 43.8517 -74.2164 52° Northeast 93 107 7,200  Level Boston Center
01:39PM 43.8731 -74.1825 49° Northeast 99 114 7,300 180 Climbing Boston Center
01:40PM 43.8903 -74.1456 57° Northeast 104 120 7,700 300 Climbing Boston Center
01:41PM 43.9072 -74.1172 50° Northeast 104 120 8,000 240 Climbing Boston Center
01:42PM 43.9267 -74.0861 49° Northeast 104 120 8,200  Climbing Boston Center
01:43PM 43.9500 -74.0464 51° Northeast 111 128 8,000 -120 Descending Boston Center
01:44PM 43.9692 -74.0122 52° Northeast 105 121 8,000  Level Boston Center
01:45PM 43.9883 -73.9811 49° Northeast 105 121 8,000  Level Boston Center
01:46PM 44.0139 -73.9411 48° Northeast 105 121 8,000  Level Boston Center
01:47PM 44.0289 -73.9156 51° Northeast 110 127 8,000  Level Boston Center
01:48PM 44.0503 -73.8700 57° Northeast 110 127 8,000  Level Boston Center
01:49PM 44.0675 -73.8328 57° Northeast 110 127 8,000  Level Boston Center
01:50PM 44.0825 -73.7983 59° Northeast 110 127 8,000 -60 Level Boston Center
01:51PM 44.0953 -73.7611 64° Northeast 110 127 7,900 -60 Descending Boston Center
01:52PM 44.1144 -73.7239 54° Northeast 110 127 7,900  Level Boston Center
01:53PM 44.1317 -73.6897 55° Northeast 105 121 7,900 -180 Level Boston Center
01:54PM 44.1486 -73.6581 53° Northeast 98 113 7,600 -420 Descending Boston Center
01:55PM 44.1656 -73.6325 47° Northeast 103 119 7,100 -480 Descending Boston Center
01:56PM 44.1847 -73.5894 58° Northeast 108 124 6,700 -600 Descending Boston Center
01:57PM 44.2039 -73.5522 54° Northeast 108 124 5,900 -720 Descending Boston Center
01:58PM 44.2208 -73.5206 53° Northeast 108 124 5,300 -300 Descending Boston Center
01:59PM 44.2378 -73.4861 56° Northeast 108 124 5,300  Level Boston Center
02:00PM 44.2528 -73.4517 59° Northeast 103 119 5,300 -180 Level Boston Center
02:01PM 44.2633 -73.4142 69° East 103 119 5,000 -300 Descending Boston Center
02:03PM 44.2990 -73.3877 28° Northeast  Level FlightAware Approximate
02:10PM 44.4365 -73.1902 44° Northeast  Level FlightAware Approximate
02:11PM 44.4567 -73.1633 44° Northeast  Level FlightAware Approximate
02:12PM 44.4667 -73.1500 44° Northeast  Level FlightAware Approximate
02:13PM 44.4719 -73.1533 44° Northeast  Level Estimated
02:14PM 44.4667 -73.1500 44° Northeast  Level FlightAware Approximate
02:15PM 44.4719 -73.1533 44° Northeast  Level Estimated
02:16PM 44.4667 -73.1500 44° Northeast  Level FlightAware Approximate
02:17PM 44.4719 -73.1533 44° Northeast  Level Estimated
02:18PM 44.4667 -73.1500 44° Northeast  Level FlightAware Approximate
02:19PM 44.4719 -73.1533 44° Northeast  Level Estimated
02:20PM 44.4667 -73.1500 44° Northeast  Level FlightAware Approximate
02:21PM 44.4719 -73.1533 44° Northeast  Level Estimated